Time;durP1;ratioP1;P1;durP2;ratioP2;P2;SDS_P1;SDS_P2;PMS_P1;PMS_P2;Temp;Humidity;BMP_temperature;BMP_pressure;BME280_temperature;BME280_humidity;BME280_pressure;Samples;Min_cycle;Max_cycle;Signal;HPM_P1;HPM_P2
2022/03/14 00:02:01;;;;;;;;;;;;;;;;;;4997595;28;19957;-24
2022/03/14 00:04:28;;;;;;;;;;;;;;;;;;4997724;28;19913;-24
2022/03/14 00:06:55;;;;;;;;;;;;;;;;;;4997710;28;19909;-24
2022/03/14 00:09:22;;;;;;;;;;;;;;;;;;4997841;28;19962;-24
2022/03/14 00:11:51;;;;;;;;;;;;;;;;;;4998144;28;19910;-24
2022/03/14 00:14:17;;;;;;;;;;;;;;;;;;4997786;28;20316;-24
2022/03/14 00:16:46;;;;;;;;;;;;;;;;;;4997529;28;20262;-24
2022/03/14 00:19:12;;;;;;;;;;;;;;;;;;4997534;28;19968;-24
2022/03/14 00:21:39;;;;;;;;;;;;;;;;;;4997754;28;19914;-24
2022/03/14 00:24:05;;;;;;;;;;;;;;;;;;4997462;28;20234;-24
2022/03/14 00:26:32;;;;;;;;;;;;;;;;;;4997286;28;19997;-24
2022/03/14 00:28:58;;;;;;;;;;;;;;;;;;4997326;28;19917;-24
2022/03/14 00:31:24;;;;;;;;;;;;;;;;;;4997478;28;20391;-24
2022/03/14 00:33:50;;;;;;;;;;;;;;;;;;4997014;28;19960;-24
2022/03/14 00:36:16;;;;;;;;;;;;;;;;;;4996872;28;19936;-24
2022/03/14 00:38:42;;;;;;;;;;;;;;;;;;4997044;28;19926;-24
2022/03/14 00:41:08;;;;;;;;;;;;;;;;;;4997075;28;19910;-24
2022/03/14 00:43:34;;;;;;;;;;;;;;;;;;4997222;28;19941;-24
2022/03/14 00:46:00;;;;;;;;;;;;;;;;;;4997264;28;19914;-24
2022/03/14 00:48:26;;;;;;;;;;;;;;;;;;4996861;28;19917;-24
2022/03/14 00:50:52;;;;;;;;;;;;;;;;;;4997168;28;19909;-24
2022/03/14 00:53:18;;;;;;;;;;;;;;;;;;4996869;28;19972;-23
2022/03/14 00:55:44;;;;;;;;;;;;;;;;;;4979617;28;19997;-24
2022/03/14 00:58:10;;;;;;;;;;;;;;;;;;4997023;28;19956;-24
2022/03/14 01:00:36;;;;;;;;;;;;;;;;;;4996935;28;20311;-24
2022/03/14 01:03:02;;;;;;;;;;;;;;;;;;4996858;28;20337;-24
2022/03/14 01:05:28;;;;;;;;;;;;;;;;;;4996630;28;19914;-24
2022/03/14 01:07:54;;;;;;;;;;;;;;;;;;4996549;28;19913;-24
2022/03/14 01:10:20;;;;;;;;;;;;;;;;;;4996468;28;20008;-24
2022/03/14 01:12:46;;;;;;;;;;;;;;;;;;4995587;28;19925;-24
2022/03/14 01:15:13;;;;;;;;;;;;;;;;;;4996400;28;19924;-24
2022/03/14 01:17:40;;;;;;;;;;;;;;;;;;4996688;28;20004;-24
2022/03/14 01:20:06;;;;;;;;;;;;;;;;;;4996243;28;19924;-24
2022/03/14 01:22:32;;;;;;;;;;;;;;;;;;4996237;28;19910;-24
2022/03/14 01:24:58;;;;;;;;;;;;;;;;;;4996111;28;19914;-24
2022/03/14 01:27:24;;;;;;;;;;;;;;;;;;4996207;28;19937;-24
2022/03/14 01:29:50;;;;;;;;;;;;;;;;;;4996129;28;19938;-24
2022/03/14 01:32:16;;;;;;;;;;;;;;;;;;4996031;28;19914;-24
2022/03/14 01:34:43;;;;;;;;;;;;;;;;;;4996310;28;20276;-24
2022/03/14 01:37:10;;;;;;;;;;;;;;;;;;4995876;28;19921;-24
2022/03/14 01:39:36;;;;;;;;;;;;;;;;;;4996208;28;20261;-24
2022/03/14 01:42:03;;;;;;;;;;;;;;;;;;4995942;28;19937;-24
2022/03/14 01:44:30;;;;;;;;;;;;;;;;;;4995960;28;19914;-24
2022/03/14 01:46:56;;;;;;;;;;;;;;;;;;4995843;28;19914;-23
2022/03/14 01:49:22;;;;;;;;;;;;;;;;;;4995804;28;19972;-24
2022/03/14 01:51:52;;;;;;;;;;;;;;;;;;4996028;28;19909;-24
2022/03/14 01:54:18;;;;;;;;;;;;;;;;;;4995551;28;19929;-24
2022/03/14 01:56:44;;;;;;;;;;;;;;;;;;4995704;28;19910;-24
2022/03/14 01:59:10;;;;;;;;;;;;;;;;;;4995942;28;19918;-24
2022/03/14 02:01:36;;;;;;;;;;;;;;;;;;4995652;28;20373;-24
2022/03/14 02:04:03;;;;;;;;;;;;;;;;;;4995528;28;19914;-24
2022/03/14 02:06:29;;;;;;;;;;;;;;;;;;4995543;28;20004;-24
2022/03/14 02:08:55;;;;;;;;;;;;;;;;;;4995480;28;19972;-24
2022/03/14 02:11:21;;;;;;;;;;;;;;;;;;4995509;28;20195;-24
2022/03/14 02:13:47;;;;;;;;;;;;;;;;;;4995255;28;19918;-24
2022/03/14 02:16:13;;;;;;;;;;;;;;;;;;4995520;28;19917;-24
2022/03/14 02:18:39;;;;;;;;;;;;;;;;;;4995738;28;20118;-24
2022/03/14 02:21:05;;;;;;;;;;;;;;;;;;4995683;28;20041;-24
2022/03/14 02:23:32;;;;;;;;;;;;;;;;;;4994986;28;19971;-24
2022/03/14 02:25:58;;;;;;;;;;;;;;;;;;4995381;28;19914;-24
2022/03/14 02:28:24;;;;;;;;;;;;;;;;;;4995335;28;19921;-24
2022/03/14 02:30:50;;;;;;;;;;;;;;;;;;4995308;28;19925;-24
2022/03/14 02:33:16;;;;;;;;;;;;;;;;;;4977990;28;19969;-24
2022/03/14 02:35:43;;;;;;;;;;;;;;;;;;4995126;28;19922;-24
2022/03/14 02:38:15;;;;;;;;;;;;;;;;;;4995533;28;19968;-24
2022/03/14 02:40:41;;;;;;;;;;;;;;;;;;4995249;28;19921;-24
2022/03/14 02:43:07;;;;;;;;;;;;;;;;;;4995400;28;20000;-24
2022/03/14 02:45:33;;;;;;;;;;;;;;;;;;4995420;28;20352;-24
2022/03/14 02:47:59;;;;;;;;;;;;;;;;;;4995202;28;20419;-24
2022/03/14 02:50:26;;;;;;;;;;;;;;;;;;4995123;28;19921;-24
2022/03/14 02:52:52;;;;;;;;;;;;;;;;;;4995242;28;19914;-24
2022/03/14 02:55:21;;;;;;;;;;;;;;;;;;4995078;28;20245;-24
2022/03/14 02:57:47;;;;;;;;;;;;;;;;;;4995082;28;19909;-24
2022/03/14 03:00:13;;;;;;;;;;;;;;;;;;4995064;28;19914;-24
2022/03/14 03:02:40;;;;;;;;;;;;;;;;;;4977768;28;19921;-24
2022/03/14 03:05:06;;;;;;;;;;;;;;;;;;4995276;28;19918;-24
2022/03/14 03:07:34;;;;;;;;;;;;;;;;;;4995278;28;19910;-25
2022/03/14 03:10:02;;;;;;;;;;;;;;;;;;4994995;28;19938;-25
2022/03/14 03:12:32;;;;;;;;;;;;;;;;;;4995167;28;19910;-25
2022/03/14 03:14:58;;;;;;;;;;;;;;;;;;4994936;28;19925;-25
2022/03/14 03:17:24;;;;;;;;;;;;;;;;;;4994883;28;19914;-24
2022/03/14 03:19:50;;;;;;;;;;;;;;;;;;4994927;28;20367;-24
2022/03/14 03:22:16;;;;;;;;;;;;;;;;;;4995018;28;19926;-24
2022/03/14 03:24:42;;;;;;;;;;;;;;;;;;4977666;28;20270;-24
2022/03/14 03:27:08;;;;;;;;;;;;;;;;;;4994739;28;19926;-24
2022/03/14 03:29:34;;;;;;;;;;;;;;;;;;4995006;28;19925;-24
2022/03/14 03:32:00;;;;;;;;;;;;;;;;;;4994910;28;19910;-24
2022/03/14 03:34:26;;;;;;;;;;;;;;;;;;4994889;28;19933;-24
2022/03/14 03:36:52;;;;;;;;;;;;;;;;;;4997488;28;20001;-24
2022/03/14 03:39:19;;;;;;;;;;;;;;;;;;4998163;28;19918;-24
2022/03/14 03:41:45;;;;;;;;;;;;;;;;;;4998532;28;20228;-24
2022/03/14 03:44:11;;;;;;;;;;;;;;;;;;4980883;28;20269;-24
2022/03/14 03:46:37;;;;;;;;;;;;;;;;;;4980863;28;19913;-24
2022/03/14 03:49:03;;;;;;;;;;;;;;;;;;4998010;28;20008;-24
2022/03/14 03:51:29;;;;;;;;;;;;;;;;;;4997975;28;19953;-24
2022/03/14 03:53:55;;;;;;;;;;;;;;;;;;4997805;28;19954;-24
2022/03/14 03:56:21;;;;;;;;;;;;;;;;;;4980665;28;19914;-24
2022/03/14 03:58:47;;;;;;;;;;;;;;;;;;4980963;28;20231;-24
2022/03/14 04:01:21;;;;;;;;;;;;;;;;;;4998113;28;19921;-24
2022/03/14 04:03:53;;;;;;;;;;;;;;;;;;4997704;28;19913;-24
2022/03/14 04:06:20;;;;;;;;;;;;;;;;;;4998011;28;19914;-24
2022/03/14 04:08:47;;;;;;;;;;;;;;;;;;4997694;28;19922;-24
2022/03/14 04:11:13;;;;;;;;;;;;;;;;;;4997537;28;19921;-24
2022/03/14 04:13:39;;;;;;;;;;;;;;;;;;4997413;28;19917;-24
2022/03/14 04:16:05;;;;;;;;;;;;;;;;;;4997753;28;20260;-24
2022/03/14 04:18:32;;;;;;;;;;;;;;;;;;4997559;28;19913;-24
2022/03/14 04:21:00;;;;;;;;;;;;;;;;;;4997501;28;20330;-24
2022/03/14 04:23:30;;;;;;;;;;;;;;;;;;4997679;28;19918;-24
2022/03/14 04:25:56;;;;;;;;;;;;;;;;;;4997618;28;19918;-24
2022/03/14 04:28:23;;;;;;;;;;;;;;;;;;4997329;28;19914;-24
2022/03/14 04:30:49;;;;;;;;;;;;;;;;;;4998146;28;19960;-23
2022/03/14 04:33:14;;;;;;;;;;;;;;;;;;4997106;28;19918;-24
2022/03/14 04:35:40;;;;;;;;;;;;;;;;;;4996978;28;20222;-24
2022/03/14 04:38:10;;;;;;;;;;;;;;;;;;4997113;28;19914;-24
2022/03/14 04:40:36;;;;;;;;;;;;;;;;;;4997291;28;20307;-24
2022/03/14 04:43:02;;;;;;;;;;;;;;;;;;4979744;28;19910;-24
2022/03/14 04:45:28;;;;;;;;;;;;;;;;;;4997142;28;20016;-24
2022/03/14 04:47:54;;;;;;;;;;;;;;;;;;4996598;28;19913;-24
2022/03/14 04:50:20;;;;;;;;;;;;;;;;;;4997072;28;19913;-24
2022/03/14 04:52:46;;;;;;;;;;;;;;;;;;4996581;28;19921;-24
2022/03/14 04:55:12;;;;;;;;;;;;;;;;;;4996764;28;19925;-24
2022/03/14 04:57:39;;;;;;;;;;;;;;;;;;4996534;28;19932;-24
2022/03/14 05:00:08;;;;;;;;;;;;;;;;;;4996591;28;19914;-24
2022/03/14 05:02:34;;;;;;;;;;;;;;;;;;5418930;23;19930;-24
2022/03/14 05:05:00;;;;;;;;;;;;;;;;;;4996610;28;19920;-23
2022/03/14 05:07:26;;;;;;;;;;;;;;;;;;4996270;28;19914;-22
2022/03/14 05:09:53;;;;;;;;;;;;;;;;;;4979025;28;19972;-22
2022/03/14 05:12:19;;;;;;;;;;;;;;;;;;5001494;28;20252;-22
2022/03/14 05:14:47;;;;;;;;;;;;;;;;;;5015888;28;19922;-22
2022/03/14 05:17:13;;;;;;;;;;;;;;;;;;5015891;28;20225;-22
2022/03/14 05:19:40;;;;;;;;;;;;;;;;;;4998191;28;19910;-22
2022/03/14 05:22:15;;;;;;;;;;;;;;;;;;5015408;28;20004;-22
2022/03/14 05:24:41;;;;;;;;;;;;;;;;;;4998046;28;20417;-23
2022/03/14 05:27:09;;;;;;;;;;;;;;;;;;5015695;28;20344;-23
2022/03/14 05:29:35;;;;;;;;;;;;;;;;;;4998079;28;19909;-23
2022/03/14 05:32:02;;;;;;;;;;;;;;;;;;5015189;28;20007;-20
2022/03/14 05:37:22;;;;;;;;;;;;;;;;;;5015578;28;19924;-21
2022/03/14 05:39:49;;;;;;;;;;;;;;;;;;4998533;28;19913;-24
2022/03/14 05:42:15;;;;;;;;;;;;;;;;;;5015042;28;19933;-21
2022/03/14 05:44:45;;;;;;;;;;;;;;;;;;5015033;28;20357;-22
2022/03/14 05:47:11;;;;;;;;;;;;;;;;;;4997754;28;19918;-22
2022/03/14 05:49:37;;;;;;;;;;;;;;;;;;5015603;28;19944;-21
2022/03/14 05:52:04;;;;;;;;;;;;;;;;;;5014952;28;19918;-22
2022/03/14 05:54:30;;;;;;;;;;;;;;;;;;5014871;28;20390;-21
2022/03/14 05:56:56;;;;;;;;;;;;;;;;;;5015111;28;19914;-22
2022/03/14 05:59:22;;;;;;;;;;;;;;;;;;5014729;28;19917;-22
2022/03/14 06:01:50;;;;;;;;;;;;;;;;;;5014504;28;20008;-22
2022/03/14 06:04:16;;;;;;;;;;;;;;;;;;4979696;28;19937;-23
2022/03/14 06:06:42;;;;;;;;;;;;;;;;;;4977835;28;19925;-21
2022/03/14 06:09:08;;;;;;;;;;;;;;;;;;4994919;28;19925;-23
2022/03/14 06:11:34;;;;;;;;;;;;;;;;;;4994906;28;19914;-24
2022/03/14 06:14:00;;;;;;;;;;;;;;;;;;4995030;28;20252;-24
2022/03/14 06:16:26;;;;;;;;;;;;;;;;;;4995389;28;20013;-23
2022/03/14 06:18:53;;;;;;;;;;;;;;;;;;4995113;28;19909;-23
2022/03/14 06:21:19;;;;;;;;;;;;;;;;;;4995022;28;19921;-23
2022/03/14 06:23:45;;;;;;;;;;;;;;;;;;4994890;28;19921;-24
2022/03/14 06:26:11;;;;;;;;;;;;;;;;;;4995073;28;20031;-26
2022/03/14 06:28:37;;;;;;;;;;;;;;;;;;4995109;28;20317;-23
2022/03/14 06:31:03;;;;;;;;;;;;;;;;;;4995372;28;19914;-24
2022/03/14 06:33:29;;;;;;;;;;;;;;;;;;4994955;28;19929;-23
2022/03/14 06:35:55;;;;;;;;;;;;;;;;;;4995598;28;19996;-23
2022/03/14 06:38:21;;;;;;;;;;;;;;;;;;4995691;28;20356;-23
2022/03/14 06:40:48;;;;;;;;;;;;;;;;;;4978029;28;19910;-24
2022/03/14 06:43:15;;;;;;;;;;;;;;;;;;4977710;28;19914;-24
2022/03/14 06:45:41;;;;;;;;;;;;;;;;;;4994860;28;19910;-23
2022/03/14 06:48:07;;;;;;;;;;;;;;;;;;4995089;28;20441;-24
2022/03/14 06:50:35;;;;;;;;;;;;;;;;;;4994879;28;19910;-23
2022/03/14 06:53:03;;;;;;;;;;;;;;;;;;4994895;28;19929;-23
2022/03/14 06:55:29;;;;;;;;;;;;;;;;;;4994688;28;19924;-24
2022/03/14 06:57:55;;;;;;;;;;;;;;;;;;4994867;28;19929;-24
2022/03/14 07:00:21;;;;;;;;;;;;;;;;;;4994987;28;19910;-23
2022/03/14 07:02:47;;;;;;;;;;;;;;;;;;4994264;28;20272;-27
2022/03/14 07:05:16;;;;;;;;;;;;;;;;;;4995138;28;19910;-23
2022/03/14 07:07:43;;;;;;;;;;;;;;;;;;4994682;28;19914;-23
2022/03/14 07:10:09;;;;;;;;;;;;;;;;;;4996533;28;20352;-23
2022/03/14 07:12:37;;;;;;;;;;;;;;;;;;4997933;28;20004;-23
2022/03/14 07:15:03;;;;;;;;;;;;;;;;;;4997794;28;19996;-23
2022/03/14 07:17:29;;;;;;;;;;;;;;;;;;4980159;28;19924;-23
2022/03/14 07:19:55;;;;;;;;;;;;;;;;;;4997574;28;19918;-23
2022/03/14 07:22:21;;;;;;;;;;;;;;;;;;4997516;28;20364;-23
2022/03/14 07:24:47;;;;;;;;;;;;;;;;;;4997783;28;19917;-23
2022/03/14 07:27:14;;;;;;;;;;;;;;;;;;4997612;28;20440;-22
2022/03/14 07:29:40;;;;;;;;;;;;;;;;;;4997429;28;19914;-22
2022/03/14 07:32:06;;;;;;;;;;;;;;;;;;4997287;28;19957;-23
2022/03/14 07:34:32;;;;;;;;;;;;;;;;;;4997384;28;19918;-23
2022/03/14 07:36:58;;;;;;;;;;;;;;;;;;4997315;28;20352;-22
2022/03/14 07:39:25;;;;;;;;;;;;;;;;;;4997542;28;19918;-24
2022/03/14 07:41:52;;;;;;;;;;;;;;;;;;4997661;28;19910;-22
2022/03/14 07:44:19;;;;;;;;;;;;;;;;;;4998193;28;20316;-23
2022/03/14 07:46:46;;;;;;;;;;;;;;;;;;4997772;28;19918;-23
2022/03/14 07:52:03;;;;;;;;;;;;;;;;;;4997668;28;20042;-23
2022/03/14 07:54:29;;;;;;;;;;;;;;;;;;4997828;28;19918;-22
2022/03/14 07:56:55;;;;;;;;;;;;;;;;;;4997503;28;20340;-23
2022/03/14 07:59:31;;;;;;;;;;;;;;;;;;4997632;28;19913;-23
2022/03/14 08:04:42;;;;;;;;;;;;;;;;;;5014988;28;19932;-25
2022/03/14 08:07:10;;;;;;;;;;;;;;;;;;5016929;28;19968;-24
2022/03/14 08:09:37;;;;;;;;;;;;;;;;;;5016984;28;19975;-24
2022/03/14 08:23:30;;;;;;;;;;;;;;;;;;5016501;28;20316;-25
2022/03/14 08:25:56;;;;;;;;;;;;;;;;;;5016906;28;19979;-26
2022/03/14 08:28:23;;;;;;;;;;;;;;;;;;5016685;28;19913;-26
2022/03/14 08:30:50;;;;;;;;;;;;;;;;;;5016192;28;19910;-25
2022/03/14 08:33:51;;;;;;;;;;;;;;;;;;5016089;28;19921;-25
2022/03/14 08:36:08;;;;;;;;;;;;;;;;;;5010675;28;19960;-24
2022/03/14 08:38:34;;;;;;;;;;;;;;;;;;5016387;28;20300;-25
2022/03/14 08:41:03;;;;;;;;;;;;;;;;;;5016292;28;19913;-24
2022/03/14 08:43:29;;;;;;;;;;;;;;;;;;5016511;28;19920;-24
2022/03/14 08:45:55;;;;;;;;;;;;;;;;;;4999713;28;19983;-26
2022/03/14 08:48:22;;;;;;;;;;;;;;;;;;5015984;28;20264;-27
2022/03/14 08:50:49;;;;;;;;;;;;;;;;;;5016105;28;19921;-25
2022/03/14 08:53:16;;;;;;;;;;;;;;;;;;5015819;28;19953;-25
2022/03/14 08:55:44;;;;;;;;;;;;;;;;;;5030925;28;19998;-25
2022/03/14 08:58:12;;;;;;;;;;;;;;;;;;5035481;28;19924;-25
2022/03/14 09:00:40;;;;;;;;;;;;;;;;;;5035864;28;20383;-25
2022/03/14 09:03:07;;;;;;;;;;;;;;;;;;5035820;28;20429;-25
2022/03/14 09:05:42;;;;;;;;;;;;;;;;;;5036047;28;19924;-25
2022/03/14 09:08:09;;;;;;;;;;;;;;;;;;5035732;28;19909;-25
2022/03/14 09:10:37;;;;;;;;;;;;;;;;;;5035465;28;19913;-26
2022/03/14 09:13:04;;;;;;;;;;;;;;;;;;5034711;28;19920;-26
2022/03/14 09:15:30;;;;;;;;;;;;;;;;;;5035346;28;19944;-26
2022/03/14 09:17:59;;;;;;;;;;;;;;;;;;5017760;28;20054;-26
2022/03/14 09:20:27;;;;;;;;;;;;;;;;;;5035498;28;19924;-25
2022/03/14 09:22:53;;;;;;;;;;;;;;;;;;5035675;28;19995;-25
2022/03/14 09:25:20;;;;;;;;;;;;;;;;;;5035659;28;19914;-25
2022/03/14 09:27:47;;;;;;;;;;;;;;;;;;5017832;28;19921;-26
2022/03/14 09:30:13;;;;;;;;;;;;;;;;;;5035494;28;19920;-25
2022/03/14 09:32:39;;;;;;;;;;;;;;;;;;5035120;28;20107;-25
2022/03/14 09:35:06;;;;;;;;;;;;;;;;;;5034606;28;19917;-25
2022/03/14 09:37:32;;;;;;;;;;;;;;;;;;5034911;28;19913;-25
2022/03/14 09:39:59;;;;;;;;;;;;;;;;;;5035291;28;19913;-25
2022/03/14 09:42:25;;;;;;;;;;;;;;;;;;5034338;28;19917;-25
2022/03/14 09:44:53;;;;;;;;;;;;;;;;;;5034513;28;19923;-25
2022/03/14 09:47:19;;;;;;;;;;;;;;;;;;5034686;28;20245;-25
2022/03/14 09:49:45;;;;;;;;;;;;;;;;;;5034509;28;19909;-25
2022/03/14 09:52:13;;;;;;;;;;;;;;;;;;5016969;28;19917;-25
2022/03/14 09:54:39;;;;;;;;;;;;;;;;;;5034598;28;19920;-25
2022/03/14 09:57:06;;;;;;;;;;;;;;;;;;5016874;28;20212;-25
2022/03/14 09:59:35;;;;;;;;;;;;;;;;;;5017413;28;19945;-25
2022/03/14 10:02:01;;;;;;;;;;;;;;;;;;5034135;28;19909;-25
2022/03/14 10:04:28;;;;;;;;;;;;;;;;;;5033983;28;20011;-23
2022/03/14 10:06:54;;;;;;;;;;;;;;;;;;5034389;28;19909;-26
2022/03/14 10:09:20;;;;;;;;;;;;;;;;;;5034102;28;19913;-26
2022/03/14 10:11:47;;;;;;;;;;;;;;;;;;5016529;28;19913;-25
2022/03/14 10:14:19;;;;;;;;;;;;;;;;;;5034030;28;20255;-25
2022/03/14 10:16:45;;;;;;;;;;;;;;;;;;5034190;28;19963;-25
2022/03/14 10:19:13;;;;;;;;;;;;;;;;;;5016448;28;20078;-25
2022/03/14 10:21:41;;;;;;;;;;;;;;;;;;5034042;28;19983;-25
2022/03/14 10:24:09;;;;;;;;;;;;;;;;;;5034389;28;19910;-25
2022/03/14 10:26:35;;;;;;;;;;;;;;;;;;5034571;28;19917;-25
2022/03/14 10:29:01;;;;;;;;;;;;;;;;;;5034256;28;19916;-26
2022/03/14 10:31:29;;;;;;;;;;;;;;;;;;5034462;28;19971;-25
2022/03/14 10:33:56;;;;;;;;;;;;;;;;;;5016423;28;19967;-23
2022/03/14 10:36:24;;;;;;;;;;;;;;;;;;5033953;28;19956;-25
2022/03/14 10:38:50;;;;;;;;;;;;;;;;;;5034212;28;20324;-25
2022/03/14 10:41:17;;;;;;;;;;;;;;;;;;5016917;28;19923;-25
2022/03/14 10:43:44;;;;;;;;;;;;;;;;;;5034139;28;19952;-24
2022/03/14 10:46:11;;;;;;;;;;;;;;;;;;5038039;28;19986;-24
2022/03/14 10:48:38;;;;;;;;;;;;;;;;;;5038098;28;19920;-25
2022/03/14 10:51:04;;;;;;;;;;;;;;;;;;5038151;28;20362;-25
2022/03/14 10:53:31;;;;;;;;;;;;;;;;;;5038075;28;19917;-24
2022/03/14 10:55:58;;;;;;;;;;;;;;;;;;5038305;28;20355;-24
2022/03/14 10:58:25;;;;;;;;;;;;;;;;;;5038743;28;19909;-24
2022/03/14 11:00:51;;;;;;;;;;;;;;;;;;5037916;28;19946;-25
2022/03/14 11:03:19;;;;;;;;;;;;;;;;;;5037511;28;19920;-24
2022/03/14 11:05:49;;;;;;;;;;;;;;;;;;5038192;28;19917;-24
2022/03/14 11:08:19;;;;;;;;;;;;;;;;;;5037836;28;19924;-24
2022/03/14 11:10:49;;;;;;;;;;;;;;;;;;5038102;28;20302;-25
2022/03/14 11:13:16;;;;;;;;;;;;;;;;;;5037937;28;19921;-26
2022/03/14 11:15:42;;;;;;;;;;;;;;;;;;5037846;28;19928;-25
2022/03/14 11:18:14;;;;;;;;;;;;;;;;;;5037656;28;19913;-25
2022/03/14 11:23:31;;;;;;;;;;;;;;;;;;5037202;28;19924;-25
2022/03/14 11:25:59;;;;;;;;;;;;;;;;;;5037360;28;19913;-25
2022/03/14 11:28:27;;;;;;;;;;;;;;;;;;5019836;28;19913;-25
2022/03/14 11:30:55;;;;;;;;;;;;;;;;;;5019786;28;20062;-25
2022/03/14 11:33:21;;;;;;;;;;;;;;;;;;5037205;28;20267;-26
2022/03/14 11:35:49;;;;;;;;;;;;;;;;;;5037850;28;19909;-25
2022/03/14 11:38:15;;;;;;;;;;;;;;;;;;5037584;28;19936;-26
2022/03/14 11:40:41;;;;;;;;;;;;;;;;;;5037541;28;20264;-25
2022/03/14 11:43:09;;;;;;;;;;;;;;;;;;5036962;28;19912;-26
2022/03/14 11:45:35;;;;;;;;;;;;;;;;;;5037277;28;19909;-26
2022/03/14 11:48:05;;;;;;;;;;;;;;;;;;5019763;28;20290;-25
2022/03/14 11:50:32;;;;;;;;;;;;;;;;;;5037040;28;19913;-25
2022/03/14 11:52:59;;;;;;;;;;;;;;;;;;5019506;28;20248;-25
2022/03/14 11:55:27;;;;;;;;;;;;;;;;;;5036424;28;19924;-25
2022/03/14 11:57:53;;;;;;;;;;;;;;;;;;5035749;28;19909;-25
2022/03/14 12:00:22;;;;;;;;;;;;;;;;;;5035689;28;20202;-26
2022/03/14 12:02:48;;;;;;;;;;;;;;;;;;5019136;28;20260;-25
2022/03/14 12:05:15;;;;;;;;;;;;;;;;;;5036267;28;20017;-26
2022/03/14 12:07:41;;;;;;;;;;;;;;;;;;5036267;28;20020;-25
2022/03/14 12:10:08;;;;;;;;;;;;;;;;;;5036243;28;19923;-25
2022/03/14 12:12:36;;;;;;;;;;;;;;;;;;5036580;28;19905;-25
2022/03/14 12:15:02;;;;;;;;;;;;;;;;;;5018679;28;20128;-25
2022/03/14 12:17:28;;;;;;;;;;;;;;;;;;5036283;28;19913;-25
2022/03/14 12:19:56;;;;;;;;;;;;;;;;;;5035892;28;20042;-25
2022/03/14 12:22:25;;;;;;;;;;;;;;;;;;5036445;28;20024;-25
2022/03/14 12:24:51;;;;;;;;;;;;;;;;;;5036694;28;19924;-25
2022/03/14 12:27:19;;;;;;;;;;;;;;;;;;5036415;28;19999;-25
2022/03/14 12:29:45;;;;;;;;;;;;;;;;;;5036283;28;20020;-25
2022/03/14 12:32:11;;;;;;;;;;;;;;;;;;5036503;28;20314;-25
2022/03/14 12:34:38;;;;;;;;;;;;;;;;;;5018827;28;19936;-25
2022/03/14 12:37:05;;;;;;;;;;;;;;;;;;5036167;28;19949;-25
2022/03/14 12:39:31;;;;;;;;;;;;;;;;;;5036076;28;20067;-25
2022/03/14 12:41:58;;;;;;;;;;;;;;;;;;5018554;28;19913;-25
2022/03/14 12:44:24;;;;;;;;;;;;;;;;;;5036309;28;19914;-25
2022/03/14 12:46:52;;;;;;;;;;;;;;;;;;5036058;28;19923;-25
2022/03/14 12:49:21;;;;;;;;;;;;;;;;;;5035995;28;19913;-25
2022/03/14 12:51:47;;;;;;;;;;;;;;;;;;5035708;28;19956;-32
2022/03/14 12:54:14;;;;;;;;;;;;;;;;;;5018264;28;20348;-25
2022/03/14 12:56:40;;;;;;;;;;;;;;;;;;5036076;28;19945;-25
2022/03/14 12:59:07;;;;;;;;;;;;;;;;;;5035950;28;20307;-25
2022/03/14 13:01:37;;;;;;;;;;;;;;;;;;5018241;28;20263;-25
2022/03/14 13:04:05;;;;;;;;;;;;;;;;;;5035363;28;20000;-25
2022/03/14 13:06:32;;;;;;;;;;;;;;;;;;5035632;28;19917;-25
2022/03/14 13:08:58;;;;;;;;;;;;;;;;;;5035345;28;19932;-25
2022/03/14 13:11:24;;;;;;;;;;;;;;;;;;5017895;28;19964;-25
2022/03/14 13:13:50;;;;;;;;;;;;;;;;;;5035190;28;19921;-25
2022/03/14 13:16:18;;;;;;;;;;;;;;;;;;5035760;28;19975;-25
2022/03/14 13:18:45;;;;;;;;;;;;;;;;;;5035537;28;19913;-25
2022/03/14 13:21:11;;;;;;;;;;;;;;;;;;5018695;28;19909;-26
2022/03/14 13:23:40;;;;;;;;;;;;;;;;;;5035249;28;20277;-25
2022/03/14 13:26:06;;;;;;;;;;;;;;;;;;5035251;28;19925;-26
2022/03/14 13:28:32;;;;;;;;;;;;;;;;;;5035336;28;20404;-25
2022/03/14 13:30:58;;;;;;;;;;;;;;;;;;5035389;28;20001;-25
2022/03/14 13:33:25;;;;;;;;;;;;;;;;;;5035317;28;19960;-26
2022/03/14 13:35:52;;;;;;;;;;;;;;;;;;5034971;28;19909;-25
2022/03/14 13:38:21;;;;;;;;;;;;;;;;;;5035809;28;19935;-26
2022/03/14 13:40:47;;;;;;;;;;;;;;;;;;5035077;28;19913;-25
2022/03/14 13:43:14;;;;;;;;;;;;;;;;;;5035335;28;19944;-27
2022/03/14 13:45:41;;;;;;;;;;;;;;;;;;5035065;28;19997;-27
2022/03/14 13:51:00;;;;;;;;;;;;;;;;;;5035064;28;20255;-26
2022/03/14 13:53:27;;;;;;;;;;;;;;;;;;5034629;28;19923;-26
2022/03/14 13:55:53;;;;;;;;;;;;;;;;;;5034695;28;19921;-27
2022/03/14 13:58:20;;;;;;;;;;;;;;;;;;5016401;28;19909;-26
2022/03/14 14:00:46;;;;;;;;;;;;;;;;;;5034710;28;19913;-27
2022/03/14 14:03:13;;;;;;;;;;;;;;;;;;5034748;28;19917;-28
2022/03/14 14:05:40;;;;;;;;;;;;;;;;;;5034764;28;19976;-27
2022/03/14 14:08:06;;;;;;;;;;;;;;;;;;5035220;28;19917;-25
2022/03/14 14:10:32;;;;;;;;;;;;;;;;;;5017487;28;19928;-25
2022/03/14 14:12:59;;;;;;;;;;;;;;;;;;5034387;28;19916;-25
2022/03/14 14:15:26;;;;;;;;;;;;;;;;;;5016930;28;19924;-25
2022/03/14 14:17:52;;;;;;;;;;;;;;;;;;5017018;28;19913;-25
2022/03/14 14:20:18;;;;;;;;;;;;;;;;;;5016532;28;19924;-25
2022/03/14 14:22:45;;;;;;;;;;;;;;;;;;5034501;28;19910;-25
2022/03/14 14:25:11;;;;;;;;;;;;;;;;;;5034645;28;19927;-25
2022/03/14 14:27:37;;;;;;;;;;;;;;;;;;5034315;28;20344;-25
2022/03/14 14:30:03;;;;;;;;;;;;;;;;;;5016579;28;19963;-25
2022/03/14 14:32:29;;;;;;;;;;;;;;;;;;5034268;28;19949;-25
2022/03/14 14:34:57;;;;;;;;;;;;;;;;;;5033934;28;19960;-25
2022/03/14 14:37:24;;;;;;;;;;;;;;;;;;5034426;28;19940;-25
2022/03/14 14:39:50;;;;;;;;;;;;;;;;;;5016643;28;19971;-25
2022/03/14 14:42:17;;;;;;;;;;;;;;;;;;5033944;28;19948;-25
2022/03/14 14:44:43;;;;;;;;;;;;;;;;;;5034218;28;19914;-25
2022/03/14 14:47:11;;;;;;;;;;;;;;;;;;5034039;28;19975;-25
2022/03/14 14:49:38;;;;;;;;;;;;;;;;;;5016571;28;19909;-26
2022/03/14 14:52:04;;;;;;;;;;;;;;;;;;5033858;28;19913;-27
2022/03/14 14:54:30;;;;;;;;;;;;;;;;;;5033892;28;19913;-25
2022/03/14 14:56:58;;;;;;;;;;;;;;;;;;5033953;28;19940;-25
2022/03/14 14:59:28;;;;;;;;;;;;;;;;;;5016379;28;20244;-25
2022/03/14 15:01:59;;;;;;;;;;;;;;;;;;5016201;28;19917;-25
2022/03/14 15:04:25;;;;;;;;;;;;;;;;;;5033433;28;19924;-25
2022/03/14 15:06:51;;;;;;;;;;;;;;;;;;5033543;28;20037;-25
2022/03/14 15:09:18;;;;;;;;;;;;;;;;;;5033671;28;19913;-25
2022/03/14 15:11:44;;;;;;;;;;;;;;;;;;5033604;28;19995;-25
2022/03/14 15:17:03;;;;;;;;;;;;;;;;;;5033496;28;19975;-25
2022/03/14 15:19:31;;;;;;;;;;;;;;;;;;5034601;28;19913;-24
2022/03/14 15:21:59;;;;;;;;;;;;;;;;;;5016279;28;19936;-25
2022/03/14 15:24:26;;;;;;;;;;;;;;;;;;5033657;28;19913;-25
2022/03/14 15:26:52;;;;;;;;;;;;;;;;;;5033651;28;20306;-25
2022/03/14 15:29:18;;;;;;;;;;;;;;;;;;5033875;28;19921;-26
2022/03/14 15:31:44;;;;;;;;;;;;;;;;;;5034860;28;19916;-26
2022/03/14 15:34:10;;;;;;;;;;;;;;;;;;5037517;28;20396;-27
2022/03/14 15:36:36;;;;;;;;;;;;;;;;;;5019670;28;19916;-27
2022/03/14 15:39:02;;;;;;;;;;;;;;;;;;5037516;28;19917;-27
2022/03/14 15:41:28;;;;;;;;;;;;;;;;;;5037174;28;19916;-27
2022/03/14 15:43:54;;;;;;;;;;;;;;;;;;5037140;28;20251;-27
2022/03/14 15:46:21;;;;;;;;;;;;;;;;;;5019282;28;19913;-27
2022/03/14 15:48:47;;;;;;;;;;;;;;;;;;5036807;28;19923;-26
2022/03/14 15:51:13;;;;;;;;;;;;;;;;;;5037026;28;20372;-26
2022/03/14 15:53:40;;;;;;;;;;;;;;;;;;5036850;28;19924;-26
2022/03/14 15:56:06;;;;;;;;;;;;;;;;;;5036765;28;20245;-26
2022/03/14 15:58:32;;;;;;;;;;;;;;;;;;5036684;28;19925;-26
2022/03/14 16:00:58;;;;;;;;;;;;;;;;;;5036713;28;19914;-26
2022/03/14 16:03:24;;;;;;;;;;;;;;;;;;5036484;28;20355;-26
2022/03/14 16:05:51;;;;;;;;;;;;;;;;;;5036252;28;19971;-26
2022/03/14 16:08:20;;;;;;;;;;;;;;;;;;5035984;28;19977;-26
2022/03/14 16:10:47;;;;;;;;;;;;;;;;;;5018295;28;19924;-26
2022/03/14 16:13:13;;;;;;;;;;;;;;;;;;5017994;28;19932;-26
2022/03/14 16:15:39;;;;;;;;;;;;;;;;;;5035912;28;19984;-26
2022/03/14 16:18:05;;;;;;;;;;;;;;;;;;5035882;28;19913;-26
2022/03/14 16:20:31;;;;;;;;;;;;;;;;;;5018215;28;20001;-26
2022/03/14 16:22:57;;;;;;;;;;;;;;;;;;5035701;28;20348;-26
2022/03/14 16:25:23;;;;;;;;;;;;;;;;;;5035590;28;20259;-26
2022/03/14 16:27:49;;;;;;;;;;;;;;;;;;5035606;28;20001;-27
2022/03/14 16:30:18;;;;;;;;;;;;;;;;;;5017889;28;19928;-26
2022/03/14 16:32:44;;;;;;;;;;;;;;;;;;5035531;28;20015;-27
2022/03/14 16:35:11;;;;;;;;;;;;;;;;;;5035519;28;19948;-27
2022/03/14 16:37:37;;;;;;;;;;;;;;;;;;5035854;28;19917;-26
2022/03/14 16:40:03;;;;;;;;;;;;;;;;;;5035970;28;20332;-26
2022/03/14 16:42:29;;;;;;;;;;;;;;;;;;5035726;28;19937;-26
2022/03/14 16:44:55;;;;;;;;;;;;;;;;;;5035764;28;20356;-26
2022/03/14 16:47:21;;;;;;;;;;;;;;;;;;5035694;28;19975;-26
2022/03/14 16:49:47;;;;;;;;;;;;;;;;;;5036008;28;19992;-26
2022/03/14 16:52:15;;;;;;;;;;;;;;;;;;5035751;28;19975;-26
2022/03/14 16:54:41;;;;;;;;;;;;;;;;;;5035597;28;20032;-26
2022/03/14 16:57:07;;;;;;;;;;;;;;;;;;5036015;28;19913;-26
2022/03/14 16:59:34;;;;;;;;;;;;;;;;;;5035836;28;19917;-26
2022/03/14 17:02:00;;;;;;;;;;;;;;;;;;5035339;28;19920;-25
2022/03/14 17:04:27;;;;;;;;;;;;;;;;;;5035109;28;20248;-25
2022/03/14 17:06:53;;;;;;;;;;;;;;;;;;5017819;28;19934;-25
2022/03/14 17:09:19;;;;;;;;;;;;;;;;;;5035426;28;19914;-25
2022/03/14 17:11:45;;;;;;;;;;;;;;;;;;5017634;28;19948;-25